createdAt,value
2019-02-08T00:00:42.751Z,24.63
2019-02-08T00:03:10.363Z,28.23
2019-02-08T00:05:38.104Z,26.63
2019-02-08T00:08:05.869Z,26.60
2019-02-08T00:10:33.524Z,26.00
2019-02-08T00:13:01.171Z,26.70
2019-02-08T00:15:28.872Z,25.80
2019-02-08T00:17:56.621Z,24.63
2019-02-08T00:20:24.379Z,25.33
2019-02-08T00:22:52.147Z,28.03
2019-02-08T00:25:20.125Z,24.93
2019-02-08T00:27:47.767Z,27.13
2019-02-08T00:30:17.501Z,25.73
2019-02-08T00:32:45.128Z,24.83
2019-02-08T00:35:12.838Z,25.40
2019-02-08T00:37:40.590Z,26.27
2019-02-08T00:40:10.096Z,25.47
2019-02-08T00:42:37.749Z,25.90
2019-02-08T00:45:06.736Z,26.17
2019-02-08T00:47:34.930Z,25.90
2019-02-08T00:50:02.576Z,26.40
2019-02-08T00:52:30.365Z,25.73
2019-02-08T00:54:58.002Z,24.63
2019-02-08T00:57:25.975Z,26.63
2019-02-08T00:59:53.648Z,26.60
2019-02-08T01:02:21.429Z,24.87
2019-02-08T01:04:49.292Z,24.80
2019-02-08T01:07:16.956Z,23.07
2019-02-08T01:09:44.599Z,25.53
2019-02-08T01:12:12.248Z,25.50
2019-02-08T01:14:40.060Z,24.90
2019-02-08T01:17:07.733Z,24.20
2019-02-08T01:19:35.479Z,25.40
2019-02-08T01:22:03.132Z,25.00
2019-02-08T01:24:31.303Z,21.40
2019-02-08T01:26:59.083Z,26.20
2019-02-08T01:29:26.827Z,23.97
2019-02-08T01:31:54.512Z,24.47
2019-02-08T01:34:22.165Z,26.77
2019-02-08T01:36:49.943Z,25.20
2019-02-08T01:39:17.600Z,24.73
2019-02-08T01:41:45.209Z,25.97
2019-02-08T01:44:14.453Z,24.07
2019-02-08T01:46:42.128Z,27.03
2019-02-08T01:49:09.791Z,26.97
2019-02-08T01:51:37.455Z,27.47
2019-02-08T01:54:05.327Z,22.80
2019-02-08T01:56:32.884Z,24.93
2019-02-08T01:59:00.655Z,23.50
2019-02-08T02:01:28.403Z,22.53
2019-02-08T02:03:56.080Z,24.90
2019-02-08T02:06:23.727Z,26.43
2019-02-08T02:08:51.518Z,26.47
2019-02-08T02:11:19.155Z,24.80
2019-02-08T02:13:46.841Z,24.77
2019-02-08T02:16:14.608Z,24.60
2019-02-08T02:18:42.188Z,25.17
2019-02-08T02:21:09.816Z,25.63
2019-02-08T02:23:37.423Z,24.53
2019-02-08T02:26:05.672Z,23.12
2019-02-08T02:28:33.330Z,24.17
2019-02-08T02:31:01.097Z,24.23
2019-02-08T02:33:28.968Z,25.30
2019-02-08T02:35:56.629Z,24.07
2019-02-08T02:38:24.397Z,23.73
2019-02-08T02:40:52.058Z,23.73
2019-02-08T02:43:19.736Z,23.27
2019-02-08T02:45:47.472Z,24.63
2019-02-08T02:48:15.269Z,23.90
2019-02-08T02:50:43.125Z,24.10
2019-02-08T02:53:10.720Z,23.97
2019-02-08T02:55:38.444Z,23.33
2019-02-08T02:58:06.343Z,22.30
2019-02-08T03:00:35.502Z,23.27
2019-02-08T03:03:03.263Z,24.17
2019-02-08T03:05:31.054Z,22.53
2019-02-08T03:07:58.717Z,25.23
2019-02-08T03:10:26.359Z,22.23
2019-02-08T03:12:54.036Z,23.67
2019-02-08T03:15:24.977Z,22.13
2019-02-08T03:17:52.848Z,22.37
2019-02-08T03:20:23.995Z,23.97
2019-02-08T03:22:51.552Z,21.77
2019-02-08T03:25:23.726Z,22.63
2019-02-08T03:27:51.598Z,22.33
2019-02-08T03:30:21.910Z,22.47
2019-02-08T03:32:49.456Z,24.30
2019-02-08T03:35:18.208Z,22.77
2019-02-08T03:37:45.915Z,22.13
2019-02-08T03:40:17.992Z,22.73
2019-02-08T03:42:45.768Z,21.63
2019-02-08T03:45:13.537Z,22.87
2019-02-08T03:47:41.179Z,23.47
2019-02-08T03:50:10.391Z,22.60
2019-02-08T03:52:38.157Z,23.20
2019-02-08T03:55:06.744Z,22.13
2019-02-08T03:57:34.287Z,22.10
2019-02-08T04:00:01.968Z,24.20
2019-02-08T04:02:29.620Z,22.90
2019-02-08T04:04:57.171Z,22.67
2019-02-08T04:07:24.839Z,23.20
2019-02-08T04:09:52.621Z,23.40
2019-02-08T04:12:20.283Z,22.10
2019-02-08T04:14:48.052Z,24.70
2019-02-08T04:17:15.727Z,23.33
2019-02-08T04:19:43.384Z,23.63
2019-02-08T04:22:11.144Z,22.17
2019-02-08T04:24:38.908Z,23.60
2019-02-08T04:27:06.452Z,24.33
2019-02-08T04:29:34.240Z,25.20
2019-02-08T04:32:02.002Z,24.77
2019-02-08T04:34:29.769Z,24.50
2019-02-08T04:36:57.311Z,23.10
2019-02-08T04:39:25.101Z,24.70
2019-02-08T04:41:52.771Z,24.83
2019-02-08T04:44:20.530Z,23.70
2019-02-08T04:46:48.398Z,24.17
2019-02-08T04:49:16.056Z,23.93
2019-02-08T04:51:43.828Z,24.40
2019-02-08T04:54:11.487Z,25.40
2019-02-08T04:56:39.135Z,24.40
2019-02-08T04:59:06.812Z,26.80
2019-02-08T05:01:34.355Z,25.17
2019-02-08T05:04:02.037Z,23.83
2019-02-08T05:06:29.912Z,24.10
2019-02-08T05:08:57.673Z,24.77
2019-02-08T05:11:25.439Z,24.20
2019-02-08T05:13:53.077Z,23.97
2019-02-08T05:16:20.760Z,25.33
2019-02-08T05:18:48.437Z,25.97
2019-02-08T05:21:16.209Z,24.47
2019-02-08T05:23:43.859Z,24.13
2019-02-08T05:26:12.038Z,24.70
2019-02-08T05:28:39.799Z,24.43
2019-02-08T05:31:07.375Z,23.53
2019-02-08T05:33:35.131Z,25.27
2019-02-08T05:36:02.709Z,61.47
2019-02-08T05:38:30.365Z,230.07
2019-02-08T05:40:58.224Z,663.30
2019-02-08T05:43:25.775Z,821.70
2019-02-08T05:45:53.546Z,562.10
2019-02-08T05:48:21.424Z,460.17
2019-02-08T05:50:49.069Z,533.37
2019-02-08T05:53:16.848Z,237.80
2019-02-08T05:55:44.480Z,176.17
2019-02-08T05:58:12.279Z,45.87
2019-02-08T06:00:42.912Z,40.17
2019-02-08T06:03:10.558Z,37.07
2019-02-08T06:05:38.471Z,33.20
2019-02-08T06:08:06.618Z,30.63
2019-02-08T06:10:34.196Z,34.97
2019-02-08T06:13:01.950Z,35.70
2019-02-08T06:15:29.712Z,34.03
2019-02-08T06:17:57.489Z,31.13
2019-02-08T06:20:25.653Z,29.63
2019-02-08T06:22:53.297Z,29.67
2019-02-08T06:25:21.403Z,35.93
2019-02-08T06:27:49.044Z,31.23
2019-02-08T06:30:21.223Z,30.63
2019-02-08T06:32:48.888Z,31.90
2019-02-08T06:35:17.163Z,30.43
2019-02-08T06:37:44.961Z,40.13
2019-02-08T06:40:19.863Z,63.37
2019-02-08T06:42:47.632Z,50.60
2019-02-08T06:45:16.623Z,58.90
2019-02-08T06:47:44.284Z,53.40
2019-02-08T06:50:13.163Z,46.77
2019-02-08T06:52:40.837Z,52.60
2019-02-08T06:55:11.024Z,62.50
2019-02-08T06:57:42.213Z,47.23
2019-02-08T07:00:15.608Z,40.77
2019-02-08T07:02:50.284Z,38.10
2019-02-08T07:05:22.300Z,32.77
2019-02-08T07:07:57.846Z,31.63
2019-02-08T07:10:45.279Z,35.90
2019-02-08T07:13:14.392Z,60.53
2019-02-08T07:15:59.343Z,58.60
2019-02-08T07:18:28.643Z,54.40
2019-02-08T07:21:03.883Z,44.10
2019-02-08T07:23:33.196Z,40.23
2019-02-08T07:26:02.490Z,35.33
2019-02-08T07:28:34.644Z,34.67
2019-02-08T07:31:06.933Z,35.90
2019-02-08T07:33:36.114Z,35.57
2019-02-08T07:36:05.328Z,39.17
2019-02-08T07:38:34.734Z,37.37
2019-02-08T07:41:09.903Z,39.60
2019-02-08T07:43:51.481Z,39.23
2019-02-08T07:46:29.864Z,43.57
2019-02-08T07:48:59.282Z,44.03
2019-02-08T07:51:44.565Z,44.80
2019-02-08T07:54:32.295Z,47.27
2019-02-08T07:57:01.489Z,49.97
2019-02-08T07:59:30.902Z,59.50
2019-02-08T08:02:02.964Z,61.10
2019-02-08T08:04:48.866Z,42.97
2019-02-08T08:07:33.204Z,37.17
2019-02-08T08:10:05.098Z,38.03
2019-02-08T08:12:49.531Z,98.87
2019-02-08T08:15:27.843Z,45.43
2019-02-08T08:18:00.115Z,59.17
2019-02-08T08:20:38.332Z,54.83
2019-02-08T08:23:13.782Z,40.53
2019-02-08T08:25:43.367Z,41.87
2019-02-08T08:28:18.621Z,34.77
2019-02-08T08:30:47.807Z,39.53
2019-02-08T08:33:17.939Z,41.50
2019-02-08T08:35:47.252Z,42.33
2019-02-08T08:38:33.341Z,36.87
2019-02-08T08:41:18.924Z,34.63
2019-02-08T08:43:59.941Z,34.77
2019-02-08T08:46:32.176Z,37.67
2019-02-08T08:49:13.535Z,33.87
2019-02-08T08:51:59.448Z,49.23
2019-02-08T08:54:37.539Z,40.40
2019-02-08T08:57:06.865Z,50.10
2019-02-08T08:59:54.517Z,33.17
2019-02-08T09:02:36.115Z,26.97
2019-02-08T09:05:14.712Z,29.17
2019-02-08T09:07:43.967Z,25.87
2019-02-08T09:10:29.676Z,24.00
2019-02-08T09:13:17.013Z,25.40
2019-02-08T09:15:49.395Z,24.10
2019-02-08T09:18:21.358Z,22.53
2019-02-08T09:20:50.761Z,24.80
2019-02-08T09:23:38.085Z,23.60
2019-02-08T09:26:25.713Z,23.70
2019-02-08T09:28:55.020Z,20.97
2019-02-08T09:31:30.243Z,20.43
2019-02-08T09:34:05.400Z,21.40
2019-02-08T09:36:47.347Z,24.10
2019-02-08T09:39:19.979Z,23.43
2019-02-08T09:41:51.941Z,23.53
2019-02-08T09:44:28.419Z,21.67
2019-02-08T09:46:57.909Z,18.67
2019-02-08T09:50:01.485Z,21.20
2019-02-08T09:52:30.931Z,22.73
2019-02-08T09:55:16.885Z,21.73
2019-02-08T09:57:48.901Z,22.87
2019-02-08T10:00:21.365Z,24.13
2019-02-08T10:03:02.549Z,24.53
2019-02-08T10:05:31.836Z,25.67
2019-02-08T10:08:13.130Z,27.10
2019-02-08T10:10:42.323Z,25.70
2019-02-08T10:13:26.992Z,23.70
2019-02-08T10:16:12.986Z,24.23
2019-02-08T10:19:00.623Z,23.53
2019-02-08T10:21:46.456Z,25.07
2019-02-08T10:24:21.646Z,23.17
2019-02-08T10:27:06.004Z,25.23
2019-02-08T10:29:40.892Z,22.73
2019-02-08T10:32:28.775Z,25.20
2019-02-08T10:35:13.188Z,28.47
2019-02-08T10:37:51.680Z,24.83
2019-02-08T10:40:23.818Z,25.03
2019-02-08T10:42:55.774Z,23.63
2019-02-08T10:45:24.985Z,24.63
2019-02-08T10:47:54.176Z,31.17
2019-02-08T10:50:32.283Z,34.33
2019-02-08T10:53:07.328Z,29.90
2019-02-08T10:55:39.642Z,30.83
2019-02-08T10:58:24.155Z,33.33
2019-02-08T11:00:59.148Z,24.73
2019-02-08T11:03:31.359Z,23.17
2019-02-08T11:06:17.355Z,20.97
2019-02-08T11:09:05.181Z,23.90
2019-02-08T11:11:46.668Z,22.00
2019-02-08T11:14:32.464Z,26.70
2019-02-08T11:17:18.262Z,20.60
2019-02-08T11:19:46.119Z,25.80
2019-02-08T11:22:13.667Z,21.73
2019-02-08T11:24:41.351Z,23.57
2019-02-08T11:27:09.028Z,23.17
2019-02-08T11:29:36.778Z,26.17
2019-02-08T11:32:05.473Z,19.95
2019-02-08T11:34:33.111Z,19.07
2019-02-08T11:37:00.794Z,20.30
2019-02-08T11:39:28.445Z,18.40
2019-02-08T11:41:56.109Z,16.33
2019-02-08T11:44:23.789Z,19.80
2019-02-08T11:46:51.531Z,20.90
2019-02-08T11:49:19.310Z,21.33
2019-02-08T11:51:46.968Z,23.03
2019-02-08T11:54:14.636Z,19.60
2019-02-08T11:56:42.296Z,17.57
2019-02-08T11:59:09.904Z,18.57
2019-02-08T12:01:39.465Z,17.57
2019-02-08T12:04:07.134Z,15.33
2019-02-08T12:06:34.680Z,16.97
2019-02-08T12:09:02.371Z,19.97
2019-02-08T12:11:30.028Z,23.57
2019-02-08T12:13:57.797Z,21.17
2019-02-08T12:16:25.335Z,17.20
2019-02-08T12:18:53.012Z,11.97
2019-02-08T12:21:20.559Z,15.20
2019-02-08T12:23:48.651Z,18.20
2019-02-08T12:26:16.295Z,14.23
2019-02-08T12:28:43.974Z,16.37
2019-02-08T12:31:11.746Z,15.53
2019-02-08T12:33:39.407Z,20.47
2019-02-08T12:36:07.175Z,16.67
2019-02-08T12:38:34.833Z,17.87
2019-02-08T12:41:09.419Z,14.13
2019-02-08T12:43:31.701Z,14.67
2019-02-08T12:45:59.354Z,16.13
2019-02-08T12:48:27.036Z,17.10
2019-02-08T12:50:54.675Z,18.67
2019-02-08T12:53:22.255Z,18.10
2019-02-08T12:55:49.898Z,17.13
2019-02-08T12:58:17.589Z,19.73
2019-02-08T13:00:45.454Z,21.60
2019-02-08T13:03:13.058Z,35.23
2019-02-08T13:05:40.764Z,28.53
2019-02-08T13:08:08.445Z,27.20
2019-02-08T13:10:36.031Z,27.47
2019-02-08T13:13:03.620Z,27.73
2019-02-08T13:15:31.325Z,32.80
2019-02-08T13:17:59.094Z,25.13
2019-02-08T13:20:26.632Z,27.03
2019-02-08T13:22:54.415Z,40.13
2019-02-08T13:25:22.001Z,34.37
2019-02-08T13:27:49.747Z,22.57
2019-02-08T13:30:30.716Z,22.60
2019-02-08T13:32:58.592Z,23.80
2019-02-08T13:35:26.237Z,21.63
2019-02-08T13:37:53.901Z,24.70
2019-02-08T13:40:23.128Z,36.70
2019-02-08T13:42:50.776Z,29.70
2019-02-08T13:45:18.440Z,27.90
2019-02-08T13:47:46.089Z,28.37
2019-02-08T13:50:15.305Z,26.03
2019-02-08T13:52:42.966Z,21.47
2019-02-08T13:55:12.137Z,23.20
2019-02-08T13:57:39.828Z,29.20
2019-02-08T14:00:09.136Z,22.67
2019-02-08T14:02:37.004Z,68.77
2019-02-08T14:05:05.482Z,43.77
2019-02-08T14:07:33.144Z,20.83
2019-02-08T14:10:00.688Z,19.20
2019-02-08T14:12:28.374Z,22.23
2019-02-08T14:14:56.245Z,19.70
2019-02-08T14:17:23.787Z,19.33
2019-02-08T14:19:51.367Z,22.17
2019-02-08T14:22:19.125Z,22.80
2019-02-08T14:24:46.795Z,103.43
2019-02-08T14:27:14.465Z,77.10
2019-02-08T14:29:42.149Z,24.13
2019-02-08T14:32:09.784Z,23.93
2019-02-08T14:34:43.494Z,72.10
2019-02-08T14:37:06.629Z,26.10
2019-02-08T14:39:34.272Z,76.17
2019-02-08T14:42:01.964Z,40.43
2019-02-08T14:44:30.249Z,82.90
2019-02-08T14:46:57.915Z,157.50
2019-02-08T14:49:25.689Z,43.97
2019-02-08T14:51:53.348Z,129.80
2019-02-08T14:54:21.395Z,51.93
2019-02-08T14:56:49.167Z,59.90
2019-02-08T14:59:16.836Z,49.47
2019-02-08T15:01:44.503Z,35.03
2019-02-08T15:04:12.192Z,36.33
2019-02-08T15:06:39.751Z,58.97
2019-02-08T15:09:08.544Z,86.77
2019-02-08T15:11:36.171Z,64.40
2019-02-08T15:14:03.958Z,71.83
2019-02-08T15:16:31.653Z,199.20
2019-02-08T15:18:59.593Z,149.73
2019-02-08T15:21:27.575Z,231.70
2019-02-08T15:23:56.444Z,227.97
2019-02-08T15:26:25.018Z,94.80
2019-02-08T15:28:53.546Z,42.40
2019-02-08T15:31:21.626Z,41.87
2019-02-08T15:33:50.085Z,29.07
2019-02-08T15:36:18.169Z,28.83
2019-02-08T15:38:46.224Z,30.17
2019-02-08T15:41:14.387Z,24.60
2019-02-08T15:43:42.475Z,22.10
2019-02-08T15:46:10.434Z,18.60
2019-02-08T15:48:38.926Z,28.13
2019-02-08T15:51:08.429Z,36.67
2019-02-08T15:53:36.305Z,19.00
2019-02-08T15:56:08.910Z,17.50
2019-02-08T15:58:37.027Z,19.63
2019-02-08T16:01:05.711Z,18.40
2019-02-08T16:03:33.428Z,19.43
2019-02-08T16:06:02.117Z,17.93
2019-02-08T16:08:30.174Z,18.20
2019-02-08T16:10:58.659Z,18.73
2019-02-08T16:13:27.142Z,22.23
2019-02-08T16:15:56.791Z,20.80
2019-02-08T16:18:26.485Z,22.10
2019-02-08T16:20:54.523Z,20.13
2019-02-08T16:23:23.231Z,20.17
2019-02-08T16:25:51.775Z,20.47
2019-02-08T16:28:19.764Z,19.20
2019-02-08T16:30:48.157Z,20.03
2019-02-08T16:33:16.230Z,18.77
2019-02-08T16:35:43.896Z,21.13
2019-02-08T16:38:12.422Z,21.27
2019-02-08T16:40:40.291Z,21.87
2019-02-08T16:43:08.101Z,20.43
2019-02-08T16:45:36.590Z,23.87
2019-02-08T16:48:08.962Z,39.60
2019-02-08T16:50:36.723Z,29.57
2019-02-08T16:53:04.700Z,36.17
2019-02-08T16:55:32.397Z,125.23
2019-02-08T16:58:00.232Z,192.40
2019-02-08T17:00:29.431Z,137.40
2019-02-08T17:02:57.834Z,124.63
2019-02-08T17:07:49.752Z,42.43
2019-02-08T17:10:18.140Z,39.30
2019-02-08T17:12:45.690Z,30.10
2019-02-08T17:15:21.352Z,33.87
2019-02-08T17:17:48.974Z,39.97
2019-02-08T17:20:18.408Z,44.63
2019-02-08T17:22:46.286Z,105.67
2019-02-08T17:25:14.299Z,93.63
2019-02-08T17:27:41.920Z,46.00
2019-02-08T17:30:11.137Z,52.47
2019-02-08T17:32:38.763Z,38.43
2019-02-08T17:35:08.193Z,38.90
2019-02-08T17:37:35.865Z,42.17
2019-02-08T17:40:03.524Z,36.53
2019-02-08T17:42:31.225Z,35.73
2019-02-08T17:44:59.047Z,33.40
2019-02-08T17:47:26.629Z,33.43
2019-02-08T17:49:54.376Z,32.70
2019-02-08T17:52:22.237Z,33.60
2019-02-08T17:54:49.903Z,31.17
2019-02-08T17:57:17.571Z,31.90
2019-02-08T17:59:45.331Z,31.30
2019-02-08T18:02:13.060Z,31.77
2019-02-08T18:04:40.764Z,30.63
2019-02-08T18:07:08.525Z,28.47
2019-02-08T18:09:36.071Z,30.83
2019-02-08T18:12:03.679Z,28.90
2019-02-08T18:14:31.332Z,30.67
2019-02-08T18:16:58.933Z,28.97
2019-02-08T18:19:26.645Z,30.80
2019-02-08T18:21:54.300Z,31.33
2019-02-08T18:24:21.878Z,32.60
2019-02-08T18:26:49.838Z,35.00
2019-02-08T18:29:17.479Z,38.53
2019-02-08T18:31:45.267Z,40.10
2019-02-08T18:34:12.872Z,45.37
2019-02-08T18:36:40.698Z,44.70
2019-02-08T18:39:08.548Z,88.25
2019-02-08T18:41:36.332Z,85.57
2019-02-08T18:44:04.090Z,64.17
2019-02-08T18:46:31.859Z,43.93
2019-02-08T18:48:59.503Z,41.50
2019-02-08T18:51:27.150Z,36.10
2019-02-08T18:53:54.832Z,37.20
2019-02-08T18:56:22.495Z,36.03
2019-02-08T18:58:50.264Z,38.70
2019-02-08T19:01:17.940Z,38.23
2019-02-08T19:03:45.722Z,36.67
2019-02-08T19:06:13.945Z,36.37
2019-02-08T19:08:41.647Z,35.10
2019-02-08T19:11:09.309Z,35.43
2019-02-08T19:13:36.978Z,35.13
2019-02-08T19:16:05.372Z,36.63
2019-02-08T19:18:33.022Z,35.70
2019-02-08T19:21:00.650Z,38.37
2019-02-08T19:23:28.192Z,36.07
2019-02-08T19:25:56.014Z,37.20
2019-02-08T19:28:26.614Z,37.60
2019-02-08T19:30:53.637Z,45.07
2019-02-08T19:33:21.663Z,40.57
2019-02-08T19:35:49.889Z,34.87
2019-02-08T19:38:19.379Z,38.73
2019-02-08T19:40:48.020Z,36.07
2019-02-08T19:43:16.100Z,36.70
2019-02-08T19:45:44.690Z,37.60
2019-02-08T19:48:13.129Z,37.33
2019-02-08T19:50:42.282Z,38.67
2019-02-08T19:53:10.365Z,39.07
2019-02-08T19:55:38.414Z,37.77
2019-02-08T19:58:07.528Z,38.00
2019-02-08T20:00:42.749Z,36.27
2019-02-08T20:03:10.933Z,37.47
2019-02-08T20:05:39.438Z,38.43
2019-02-08T20:08:07.903Z,37.87
2019-02-08T20:10:40.041Z,36.63
2019-02-08T20:13:08.681Z,39.63
2019-02-08T20:15:36.968Z,38.73
2019-02-08T20:18:05.934Z,44.85
2019-02-08T20:20:33.993Z,39.03
2019-02-08T20:23:02.170Z,40.20
2019-02-08T20:25:30.925Z,44.93
2019-02-08T20:27:59.339Z,38.97
2019-02-08T20:30:28.236Z,39.20
2019-02-08T20:32:56.224Z,39.27
2019-02-08T20:35:27.491Z,37.47
2019-02-08T20:37:55.689Z,39.80
2019-02-08T20:40:28.156Z,37.17
2019-02-08T20:42:56.484Z,35.97
2019-02-08T20:45:25.068Z,40.37
2019-02-08T20:47:52.928Z,38.53
2019-02-08T20:50:20.593Z,35.10
2019-02-08T20:52:48.368Z,41.70
2019-02-08T20:55:16.815Z,36.33
2019-02-08T20:57:44.508Z,37.40
2019-02-08T21:00:19.746Z,34.03
2019-02-08T21:02:47.418Z,37.50
2019-02-08T21:05:15.096Z,34.10
2019-02-08T21:07:42.741Z,32.67
2019-02-08T21:10:10.609Z,33.13
2019-02-08T21:12:38.259Z,34.83
2019-02-08T21:15:07.573Z,40.50
2019-02-08T21:17:35.228Z,33.97
2019-02-08T21:20:03.009Z,32.57
2019-02-08T21:22:30.667Z,32.03
2019-02-08T21:24:58.437Z,32.00
2019-02-08T21:27:26.111Z,33.20
2019-02-08T21:29:53.748Z,32.23
2019-02-08T21:32:21.411Z,31.80
2019-02-08T21:34:49.292Z,31.80
2019-02-08T21:37:16.836Z,31.83
2019-02-08T21:39:44.625Z,30.77
2019-02-08T21:42:12.492Z,34.03
2019-02-08T21:44:40.366Z,32.87
2019-02-08T21:47:08.024Z,31.50
2019-02-08T21:49:36.856Z,30.97
2019-02-08T21:52:05.407Z,30.70
2019-02-08T21:54:33.177Z,31.33
2019-02-08T21:57:00.712Z,32.17
2019-02-08T21:59:28.384Z,31.23
2019-02-08T22:01:56.411Z,30.53
2019-02-08T22:04:24.137Z,30.23
2019-02-08T22:06:51.995Z,32.63
2019-02-08T22:09:19.678Z,30.53
2019-02-08T22:11:47.351Z,28.73
2019-02-08T22:14:15.184Z,30.40
2019-02-08T22:16:42.779Z,30.97
2019-02-08T22:19:10.408Z,27.67
2019-02-08T22:21:38.076Z,29.33
2019-02-08T22:24:05.615Z,28.53
2019-02-08T22:26:33.750Z,29.23
2019-02-08T22:29:01.580Z,33.00
2019-02-08T22:31:29.252Z,28.50
2019-02-08T22:33:57.111Z,32.30
2019-02-08T22:36:24.651Z,28.13
2019-02-08T22:38:52.337Z,27.63
2019-02-08T22:41:20.183Z,27.93
2019-02-08T22:43:47.838Z,29.83
2019-02-08T22:46:15.517Z,28.33
2019-02-08T22:48:43.071Z,28.90
2019-02-08T22:51:10.858Z,28.47
2019-02-08T22:53:38.619Z,29.77
2019-02-08T22:56:06.282Z,27.23
2019-02-08T22:58:33.954Z,26.37
2019-02-08T23:01:06.011Z,26.80
2019-02-08T23:03:33.870Z,26.27
2019-02-08T23:06:01.557Z,27.73
2019-02-08T23:08:29.156Z,25.43
2019-02-08T23:10:56.752Z,29.63
2019-02-08T23:13:24.436Z,27.60
2019-02-08T23:15:52.079Z,26.67
2019-02-08T23:18:19.864Z,27.07
2019-02-08T23:20:47.540Z,29.00
2019-02-08T23:23:15.290Z,27.27
2019-02-08T23:25:42.860Z,26.27
2019-02-08T23:28:10.411Z,28.57
2019-02-08T23:30:38.028Z,31.67
2019-02-08T23:33:05.842Z,27.27
2019-02-08T23:35:33.608Z,25.47
2019-02-08T23:38:01.372Z,29.40
2019-02-08T23:40:29.043Z,24.57
2019-02-08T23:42:56.807Z,29.27
2019-02-08T23:45:24.512Z,27.00
2019-02-08T23:47:52.235Z,28.60
2019-02-08T23:50:23.400Z,27.17
2019-02-08T23:52:51.149Z,27.50
2019-02-08T23:55:19.512Z,24.20
2019-02-08T23:57:47.094Z,26.90
